createdAt,value
2022-08-17T00:00:43.173Z,19.26
2022-08-17T00:03:23.265Z,19.25
2022-08-17T00:06:01.348Z,19.23
2022-08-17T00:08:34.127Z,19.22
2022-08-17T00:11:05.919Z,19.17
2022-08-17T00:13:38.540Z,19.16
2022-08-17T00:16:11.713Z,19.11
2022-08-17T00:19:06.139Z,19.10
2022-08-17T00:22:29.866Z,19.08
2022-08-17T00:24:18.368Z,19.05
2022-08-17T00:26:46.762Z,19.01
2022-08-17T00:29:19.717Z,18.94
2022-08-17T00:31:49.385Z,18.95
2022-08-17T00:34:17.604Z,18.94
2022-08-17T00:36:45.881Z,18.85
2022-08-17T00:39:14.054Z,18.88
2022-08-17T00:41:42.350Z,18.87
2022-08-17T00:44:11.809Z,18.88
2022-08-17T00:46:42.432Z,18.87
2022-08-17T00:49:11.966Z,18.89
2022-08-17T00:52:14.918Z,18.91
2022-08-17T00:54:47.621Z,18.90
2022-08-17T00:57:17.996Z,18.90
2022-08-17T01:00:03.015Z,18.85
2022-08-17T01:02:42.680Z,18.90
2022-08-17T01:05:25.679Z,18.90
2022-08-17T01:07:53.759Z,18.89
2022-08-17T01:10:58.797Z,18.90
2022-08-17T01:13:28.615Z,18.95
2022-08-17T01:16:18.613Z,18.96
2022-08-17T01:18:50.255Z,18.94
2022-08-17T01:21:32.782Z,18.89
2022-08-17T01:24:02.610Z,18.89
2022-08-17T01:26:32.622Z,18.90
2022-08-17T01:29:02.292Z,18.89
2022-08-17T01:31:35.886Z,18.87
2022-08-17T01:34:11.367Z,18.88
2022-08-17T01:36:43.807Z,18.91
2022-08-17T01:39:49.667Z,18.91
2022-08-17T01:42:47.223Z,18.88
2022-08-17T01:45:23.682Z,18.82
2022-08-17T01:47:55.334Z,18.76
2022-08-17T01:50:27.639Z,18.75
2022-08-17T01:53:32.200Z,18.78
2022-08-17T01:56:09.589Z,18.79
2022-08-17T01:58:39.285Z,18.81
2022-08-17T02:01:08.564Z,18.84
2022-08-17T02:03:38.071Z,18.87
2022-08-17T02:06:06.511Z,18.91
2022-08-17T02:09:01.577Z,18.94
2022-08-17T02:11:37.276Z,18.96
2022-08-17T02:14:10.307Z,18.97
2022-08-17T02:16:41.920Z,18.96
2022-08-17T02:19:15.294Z,18.95
2022-08-17T02:21:47.369Z,18.95
2022-08-17T02:24:58.655Z,18.89
2022-08-17T02:27:14.503Z,18.99
2022-08-17T02:29:42.277Z,18.99
2022-08-17T02:32:28.356Z,18.97
2022-08-17T02:34:57.908Z,18.96
2022-08-17T02:37:27.426Z,18.95
2022-08-17T02:39:59.105Z,18.95
2022-08-17T02:42:39.297Z,18.94
2022-08-17T02:45:12.608Z,18.92
2022-08-17T02:47:41.078Z,18.89
2022-08-17T02:50:12.346Z,18.86
2022-08-17T02:52:44.170Z,18.87
2022-08-17T02:55:20.472Z,18.87
2022-08-17T02:57:49.181Z,18.88
2022-08-17T03:00:33.553Z,18.88
2022-08-17T03:03:09.350Z,18.88
2022-08-17T03:05:42.322Z,18.71
2022-08-17T03:08:18.029Z,18.65
2022-08-17T03:11:19.203Z,18.59
2022-08-17T03:13:59.905Z,18.61
2022-08-17T03:16:34.306Z,18.60
2022-08-17T03:19:06.108Z,18.73
2022-08-17T03:21:34.733Z,18.53
2022-08-17T03:24:08.821Z,18.47
2022-08-17T03:26:37.359Z,18.79
2022-08-17T03:29:05.722Z,18.84
2022-08-17T03:31:34.413Z,18.62
2022-08-17T03:34:39.137Z,18.58
2022-08-17T03:37:09.739Z,18.88
2022-08-17T03:40:59.504Z,18.91
2022-08-17T03:43:32.839Z,18.80
2022-08-17T03:46:28.248Z,18.81
2022-08-17T03:49:24.958Z,18.84
2022-08-17T03:52:14.116Z,18.97
2022-08-17T03:55:02.600Z,18.69
2022-08-17T03:57:33.086Z,19.07
2022-08-17T04:05:10.809Z,19.06
2022-08-17T04:07:58.392Z,19.07
2022-08-17T04:10:33.279Z,18.95
2022-08-17T04:29:24.802Z,19.81
2022-08-17T04:31:54.463Z,20.03
2022-08-17T04:34:33.559Z,20.09
2022-08-17T04:37:07.114Z,19.90
2022-08-17T04:44:37.125Z,20.23
2022-08-17T04:51:51.036Z,20.15
2022-08-17T04:54:38.182Z,20.26
2022-08-17T04:57:06.699Z,20.31
2022-08-17T04:59:35.389Z,20.33
2022-08-17T05:02:04.415Z,20.52
2022-08-17T05:04:40.659Z,20.59
2022-08-17T05:07:10.276Z,20.54
2022-08-17T05:09:38.511Z,20.46
2022-08-17T05:12:11.275Z,20.46
2022-08-17T05:14:39.423Z,20.49
2022-08-17T05:17:11.002Z,20.54
2022-08-17T05:19:39.320Z,20.45
2022-08-17T05:22:07.000Z,20.54
2022-08-17T05:24:42.756Z,20.59
2022-08-17T05:27:14.352Z,20.62
2022-08-17T05:29:46.941Z,20.59
2022-08-17T05:32:39.055Z,20.61
2022-08-17T05:35:07.151Z,20.77
2022-08-17T05:37:35.007Z,20.85
2022-08-17T05:40:02.757Z,20.94
2022-08-17T05:42:30.713Z,21.03
2022-08-17T05:45:05.907Z,21.19
2022-08-17T05:47:37.745Z,21.32
2022-08-17T05:50:10.044Z,21.32
2022-08-17T05:53:10.362Z,21.35
2022-08-17T05:56:30.221Z,21.39
2022-08-17T05:59:04.840Z,21.42
2022-08-17T06:01:49.979Z,21.43
2022-08-17T06:04:32.329Z,21.52
2022-08-17T06:07:39.163Z,21.58
2022-08-17T06:10:18.045Z,21.72
2022-08-17T06:13:36.766Z,21.86
2022-08-17T06:16:33.050Z,21.94
2022-08-17T06:19:38.753Z,22.06
2022-08-17T06:22:08.551Z,22.19
2022-08-17T06:24:56.487Z,22.32
2022-08-17T06:27:40.618Z,22.41
2022-08-17T06:30:14.418Z,22.56
2022-08-17T06:32:45.130Z,22.67
2022-08-17T06:35:28.914Z,22.74
2022-08-17T06:38:37.144Z,22.77
2022-08-17T06:41:23.786Z,22.77
2022-08-17T06:44:42.207Z,22.76
2022-08-17T06:47:29.277Z,22.84
2022-08-17T06:50:36.616Z,22.90
2022-08-17T06:53:37.868Z,22.91
2022-08-17T06:56:11.284Z,22.91
2022-08-17T06:58:42.941Z,22.93
2022-08-17T07:01:30.743Z,22.88
2022-08-17T07:04:13.185Z,22.85
2022-08-17T07:07:27.500Z,22.81
2022-08-17T07:09:58.513Z,22.71
2022-08-17T07:12:37.067Z,22.58
2022-08-17T07:15:13.442Z,22.59
2022-08-17T07:17:47.845Z,22.59
2022-08-17T07:20:25.206Z,22.61
2022-08-17T07:23:04.210Z,22.60
2022-08-17T07:25:31.809Z,22.59
2022-08-17T07:28:06.861Z,22.59
2022-08-17T07:30:52.708Z,22.54
2022-08-17T07:33:29.279Z,22.49
2022-08-17T07:35:57.843Z,22.47
2022-08-17T07:38:34.971Z,22.48
2022-08-17T07:41:07.981Z,22.48
2022-08-17T07:43:42.113Z,22.50
2022-08-17T07:46:54.848Z,22.50
2022-08-17T07:49:31.698Z,22.49
2022-08-17T07:52:47.456Z,22.42
2022-08-17T07:54:59.430Z,22.37
2022-08-17T07:57:35.739Z,22.32
2022-08-17T08:00:31.832Z,22.30
2022-08-17T08:03:22.662Z,22.30
2022-08-17T08:06:01.484Z,22.30
2022-08-17T08:08:41.800Z,22.30
2022-08-17T08:11:14.973Z,22.30
2022-08-17T08:13:45.067Z,22.33
2022-08-17T08:16:23.804Z,22.41
2022-08-17T08:18:59.077Z,22.62
2022-08-17T08:21:51.724Z,22.87
2022-08-17T08:24:59.844Z,23.13
2022-08-17T08:27:43.483Z,23.37
2022-08-17T08:30:21.698Z,23.45
2022-08-17T08:33:09.786Z,23.50
2022-08-17T08:35:53.245Z,23.47
2022-08-17T08:38:34.295Z,23.45
2022-08-17T08:41:33.267Z,23.49
2022-08-17T08:44:03.986Z,23.67
2022-08-17T08:46:51.053Z,23.88
2022-08-17T08:50:05.730Z,24.00
2022-08-17T08:52:49.539Z,24.03
2022-08-17T08:55:59.873Z,24.13
2022-08-17T08:58:50.018Z,24.21
2022-08-17T09:01:57.072Z,24.28
2022-08-17T09:05:12.775Z,24.33
2022-08-17T09:08:03.584Z,24.37
2022-08-17T09:10:51.951Z,24.39
2022-08-17T09:13:33.010Z,24.51
2022-08-17T09:16:14.906Z,24.67
2022-08-17T09:19:02.178Z,24.72
2022-08-17T09:21:55.046Z,24.67
2022-08-17T09:24:39.717Z,24.48
2022-08-17T09:27:28.286Z,24.30
2022-08-17T09:30:08.532Z,24.23
2022-08-17T09:32:51.622Z,24.19
2022-08-17T09:35:41.103Z,24.18
2022-08-17T09:38:19.318Z,24.05
2022-08-17T09:41:20.420Z,23.97
2022-08-17T09:43:58.742Z,23.96
2022-08-17T09:47:15.730Z,23.92
2022-08-17T09:50:09.147Z,23.97
2022-08-17T09:52:37.046Z,24.04
2022-08-17T09:55:09.735Z,24.18
2022-08-17T09:57:57.318Z,24.37
2022-08-17T10:00:34.858Z,24.41
2022-08-17T10:03:16.094Z,24.42
2022-08-17T10:06:14.307Z,24.33
2022-08-17T10:09:07.707Z,24.45
2022-08-17T10:12:36.643Z,24.54
2022-08-17T10:15:36.198Z,24.60
2022-08-17T10:18:33.095Z,24.76
2022-08-17T10:21:31.968Z,24.92
2022-08-17T10:24:20.937Z,24.94
2022-08-17T10:26:56.391Z,24.99
2022-08-17T10:29:47.269Z,25.02
2022-08-17T10:33:07.118Z,25.16
2022-08-17T10:35:53.013Z,25.28
2022-08-17T10:38:46.140Z,25.26
2022-08-17T10:41:43.022Z,25.24
2022-08-17T10:44:45.356Z,25.24
2022-08-17T10:47:16.886Z,25.15
2022-08-17T10:49:53.229Z,25.11
2022-08-17T10:52:21.632Z,25.12
2022-08-17T10:54:58.336Z,25.17
2022-08-17T10:57:29.541Z,25.30
2022-08-17T11:00:28.051Z,25.51
2022-08-17T11:02:57.564Z,25.57
2022-08-17T11:05:49.848Z,25.61
2022-08-17T11:08:46.129Z,25.68
2022-08-17T11:11:39.192Z,25.76
2022-08-17T11:14:16.669Z,25.86
2022-08-17T11:17:26.321Z,25.98
2022-08-17T11:20:49.077Z,26.09
2022-08-17T11:23:37.599Z,26.26
2022-08-17T11:26:21.890Z,26.24
2022-08-17T11:28:55.764Z,26.35
2022-08-17T11:31:47.509Z,26.38
2022-08-17T11:34:26.599Z,26.40
2022-08-17T11:37:18.750Z,26.47
2022-08-17T11:40:38.603Z,26.59
2022-08-17T11:44:03.518Z,26.67
2022-08-17T11:47:09.117Z,26.63
2022-08-17T11:50:28.705Z,26.48
2022-08-17T11:52:56.520Z,26.28
2022-08-17T11:55:38.198Z,26.28
2022-08-17T11:58:29.562Z,26.31
2022-08-17T12:01:06.933Z,26.34
2022-08-17T12:03:34.542Z,26.34
2022-08-17T12:06:30.338Z,26.27
2022-08-17T12:09:20.996Z,26.32
2022-08-17T12:12:11.927Z,26.49
2022-08-17T12:17:40.555Z,26.59
2022-08-17T12:20:23.722Z,26.61
2022-08-17T12:23:17.006Z,26.61
2022-08-17T12:26:20.078Z,26.62
2022-08-17T12:28:51.098Z,26.75
2022-08-17T12:31:35.468Z,26.91
2022-08-17T12:34:05.195Z,26.88
2022-08-17T12:36:34.474Z,26.63
2022-08-17T12:39:14.155Z,26.50
2022-08-17T12:41:46.540Z,26.61
2022-08-17T12:44:20.743Z,26.67
2022-08-17T12:47:02.891Z,26.70
2022-08-17T12:49:39.115Z,26.85
2022-08-17T12:52:28.958Z,27.04
2022-08-17T12:55:02.767Z,27.23
2022-08-17T12:57:40.260Z,27.37
2022-08-17T13:00:10.415Z,27.22
2022-08-17T13:02:42.063Z,27.11
2022-08-17T13:05:35.595Z,27.15
2022-08-17T13:08:30.565Z,27.19
2022-08-17T13:11:09.886Z,27.25
2022-08-17T13:13:44.459Z,27.30
2022-08-17T13:16:11.999Z,27.36
2022-08-17T13:18:50.196Z,27.44
2022-08-17T13:21:23.195Z,27.53
2022-08-17T13:24:11.724Z,27.56
2022-08-17T13:26:47.536Z,27.52
2022-08-17T13:29:32.961Z,27.42
2022-08-17T13:32:12.950Z,27.43
2022-08-17T13:35:12.362Z,27.38
2022-08-17T13:37:36.991Z,27.41
2022-08-17T13:40:10.502Z,27.45
2022-08-17T13:42:50.332Z,27.53
2022-08-17T13:45:39.201Z,27.72
2022-08-17T13:48:15.949Z,27.88
2022-08-17T13:50:55.624Z,28.03
2022-08-17T13:53:36.086Z,28.15
2022-08-17T13:56:37.370Z,28.16
2022-08-17T13:59:14.010Z,28.16
2022-08-17T14:01:52.571Z,27.98
2022-08-17T14:05:13.232Z,27.90
2022-08-17T14:07:41.735Z,27.84
2022-08-17T14:10:16.907Z,27.80
2022-08-17T14:12:52.068Z,27.74
2022-08-17T14:15:24.409Z,27.72
2022-08-17T14:18:12.395Z,27.61
2022-08-17T14:20:44.291Z,27.58
2022-08-17T14:23:12.985Z,27.59
2022-08-17T14:25:40.842Z,27.58
2022-08-17T14:28:08.556Z,27.57
2022-08-17T14:30:37.289Z,27.50
2022-08-17T14:33:05.598Z,27.42
2022-08-17T14:35:36.144Z,27.38
2022-08-17T14:38:03.579Z,27.36
2022-08-17T14:40:34.797Z,27.29
2022-08-17T14:43:12.342Z,27.27
2022-08-17T14:45:41.102Z,27.21
2022-08-17T14:48:08.954Z,27.15
2022-08-17T14:50:43.906Z,27.10
2022-08-17T14:53:15.648Z,27.03
2022-08-17T14:55:45.359Z,27.00
2022-08-17T14:58:14.643Z,26.98
2022-08-17T15:00:43.170Z,26.97
2022-08-17T15:03:11.337Z,26.92
2022-08-17T15:05:39.602Z,26.89
2022-08-17T15:08:07.385Z,26.88
2022-08-17T15:10:35.572Z,26.90
2022-08-17T15:13:03.511Z,26.89
2022-08-17T15:15:31.309Z,26.84
2022-08-17T15:17:59.347Z,26.83
2022-08-17T15:20:29.590Z,26.78
2022-08-17T15:22:58.487Z,26.69
2022-08-17T15:25:28.558Z,26.67
2022-08-17T15:27:56.335Z,26.65
2022-08-17T15:30:26.032Z,26.63
2022-08-17T15:32:55.198Z,26.58
2022-08-17T15:35:29.872Z,26.55
2022-08-17T15:38:10.770Z,26.53
2022-08-17T15:40:44.207Z,26.49
2022-08-17T15:43:17.354Z,26.45
2022-08-17T15:45:54.855Z,26.40
2022-08-17T15:48:41.263Z,26.34
2022-08-17T15:51:15.822Z,26.24
2022-08-17T15:54:18.788Z,26.18
2022-08-17T15:56:50.650Z,26.02
2022-08-17T15:59:18.953Z,24.70
2022-08-17T16:03:13.091Z,23.67
2022-08-17T16:04:34.600Z,22.49
2022-08-17T16:07:02.811Z,21.75
2022-08-17T16:09:30.552Z,21.40
2022-08-17T16:11:58.919Z,21.24
2022-08-17T16:14:33.530Z,21.10
2022-08-17T16:17:04.709Z,20.96
2022-08-17T16:19:34.060Z,20.90
2022-08-17T16:22:02.969Z,20.87
2022-08-17T16:24:31.372Z,20.86
2022-08-17T16:26:59.960Z,20.86
2022-08-17T16:29:28.338Z,20.90
2022-08-17T16:31:57.440Z,20.95
2022-08-17T16:34:25.227Z,20.98
2022-08-17T16:36:56.516Z,21.02
2022-08-17T16:39:28.471Z,21.06
2022-08-17T16:41:59.854Z,21.08
2022-08-17T16:44:30.201Z,21.16
2022-08-17T16:47:01.117Z,21.23
2022-08-17T16:49:35.796Z,21.30
2022-08-17T16:52:09.301Z,21.28
2022-08-17T16:54:43.242Z,21.34
2022-08-17T16:57:12.938Z,21.36
2022-08-17T16:59:44.954Z,21.37
2022-08-17T17:02:27.664Z,21.40
2022-08-17T17:05:44.849Z,21.40
2022-08-17T17:08:28.078Z,21.43
2022-08-17T17:10:58.875Z,21.44
2022-08-17T17:14:01.847Z,21.45
2022-08-17T17:16:46.078Z,21.42
2022-08-17T17:19:19.676Z,21.40
2022-08-17T17:22:15.843Z,21.41
2022-08-17T17:25:04.737Z,21.39
2022-08-17T17:28:01.979Z,21.37
2022-08-17T17:30:47.460Z,21.34
2022-08-17T17:33:23.019Z,21.39
2022-08-17T17:35:59.456Z,21.36
2022-08-17T17:38:34.579Z,21.39
2022-08-17T17:41:09.022Z,21.31
2022-08-17T17:43:39.777Z,21.34
2022-08-17T17:46:27.104Z,21.35
2022-08-17T17:48:59.901Z,21.33
2022-08-17T17:52:07.980Z,21.30
2022-08-17T17:55:25.344Z,21.21
2022-08-17T17:58:29.990Z,21.23
2022-08-17T18:01:28.739Z,21.22
2022-08-17T18:04:29.833Z,21.23
2022-08-17T18:07:41.177Z,21.20
2022-08-17T18:10:31.779Z,21.15
2022-08-17T18:13:27.774Z,21.16
2022-08-17T18:15:56.012Z,21.20
2022-08-17T18:18:37.696Z,21.19
2022-08-17T18:21:16.173Z,21.20
2022-08-17T18:24:00.715Z,21.21
2022-08-17T18:26:55.411Z,21.20
2022-08-17T18:29:35.768Z,21.18
2022-08-17T18:32:28.174Z,21.08
2022-08-17T18:35:01.088Z,21.09
2022-08-17T18:37:48.596Z,21.04
2022-08-17T18:40:16.224Z,21.01
2022-08-17T18:43:06.355Z,20.97
2022-08-17T18:45:45.591Z,20.94
2022-08-17T18:48:37.713Z,20.95
2022-08-17T18:51:43.186Z,20.94
2022-08-17T18:54:23.461Z,20.91
2022-08-17T18:56:57.361Z,20.94
2022-08-17T18:59:31.365Z,20.93
2022-08-17T19:02:20.594Z,20.94
2022-08-17T19:05:12.934Z,20.95
2022-08-17T19:07:45.419Z,20.89
2022-08-17T19:10:25.047Z,20.82
2022-08-17T19:13:12.690Z,20.75
2022-08-17T19:16:12.119Z,20.75
2022-08-17T19:18:41.144Z,20.76
2022-08-17T19:21:23.117Z,20.73
2022-08-17T19:24:09.350Z,20.69
2022-08-17T19:26:54.198Z,20.67
2022-08-17T19:29:51.545Z,20.67
2022-08-17T19:32:26.765Z,20.64
2022-08-17T19:34:55.616Z,20.63
2022-08-17T19:37:56.142Z,20.62
2022-08-17T19:40:51.691Z,20.56
2022-08-17T19:43:35.887Z,20.48
2022-08-17T19:46:50.066Z,20.53
2022-08-17T19:49:54.588Z,20.54
2022-08-17T19:52:29.592Z,20.50
2022-08-17T19:55:21.614Z,20.52
2022-08-17T19:57:58.688Z,20.54
2022-08-17T20:00:26.929Z,20.56
2022-08-17T20:03:06.144Z,20.57
2022-08-17T20:06:10.856Z,20.59
2022-08-17T20:08:41.449Z,20.60
2022-08-17T20:11:21.133Z,20.62
2022-08-17T20:14:21.827Z,20.65
2022-08-17T20:17:06.202Z,20.64
2022-08-17T20:19:57.949Z,20.65
2022-08-17T20:22:51.758Z,20.63
2022-08-17T20:25:31.646Z,20.59
2022-08-17T20:28:34.821Z,20.54
2022-08-17T20:31:39.664Z,20.49
2022-08-17T20:34:30.870Z,20.43
2022-08-17T20:37:15.302Z,20.38
2022-08-17T20:39:46.701Z,20.33
2022-08-17T20:42:20.483Z,20.33
2022-08-17T20:44:59.150Z,20.37
2022-08-17T20:47:36.652Z,20.38
2022-08-17T20:50:22.769Z,20.36
2022-08-17T20:52:57.617Z,20.35
2022-08-17T20:55:51.398Z,20.39
2022-08-17T20:58:30.620Z,20.41
2022-08-17T21:01:00.938Z,20.44
2022-08-17T21:03:50.444Z,20.45
2022-08-17T21:06:19.797Z,20.45
2022-08-17T21:09:12.338Z,20.41
2022-08-17T21:12:03.910Z,20.46
2022-08-17T21:14:57.077Z,20.43
2022-08-17T21:18:08.013Z,20.42
2022-08-17T21:21:23.723Z,20.41
2022-08-17T21:24:32.649Z,20.37
2022-08-17T21:27:34.626Z,20.35
2022-08-17T21:30:02.045Z,20.33
2022-08-17T21:32:37.145Z,20.28
2022-08-17T21:35:07.059Z,20.25
2022-08-17T21:37:46.293Z,20.16
2022-08-17T21:40:17.773Z,20.24
2022-08-17T21:43:00.482Z,20.25
2022-08-17T21:45:35.142Z,20.15
2022-08-17T21:48:19.243Z,20.22
2022-08-17T21:51:28.516Z,20.19
2022-08-17T21:54:01.765Z,20.20
2022-08-17T21:56:38.800Z,20.21
2022-08-17T21:59:15.997Z,20.21
2022-08-17T22:01:51.171Z,20.20
2022-08-17T22:04:34.218Z,20.22
2022-08-17T22:07:10.697Z,20.31
2022-08-17T22:09:49.630Z,20.31
2022-08-17T22:12:20.825Z,20.38
2022-08-17T22:15:01.229Z,20.33
2022-08-17T22:17:35.001Z,20.36
2022-08-17T22:20:08.920Z,20.47
2022-08-17T22:23:24.805Z,20.44
2022-08-17T22:25:59.679Z,20.44
2022-08-17T22:28:39.125Z,20.40
2022-08-17T22:31:10.076Z,20.43
2022-08-17T22:33:50.150Z,20.40
2022-08-17T22:36:29.684Z,20.34
2022-08-17T22:39:04.002Z,20.35
2022-08-17T22:41:54.026Z,20.34
2022-08-17T22:44:31.960Z,20.29
2022-08-17T22:47:14.516Z,20.26
2022-08-17T22:49:58.900Z,20.20
2022-08-17T22:52:34.168Z,20.16
2022-08-17T22:55:36.085Z,20.15
2022-08-17T22:58:30.460Z,20.09
2022-08-17T23:01:25.409Z,20.06
2022-08-17T23:04:04.178Z,19.99
2022-08-17T23:06:36.652Z,19.95
2022-08-17T23:09:06.524Z,19.93
2022-08-17T23:11:50.331Z,19.86
2022-08-17T23:14:22.042Z,19.88
2022-08-17T23:16:50.871Z,19.87
2022-08-17T23:19:20.681Z,19.87
2022-08-17T23:21:50.011Z,19.94
2022-08-17T23:24:23.275Z,19.98
2022-08-17T23:26:51.081Z,20.00
2022-08-17T23:29:21.211Z,19.99
2022-08-17T23:31:50.598Z,19.97
2022-08-17T23:34:18.615Z,19.93
2022-08-17T23:36:50.261Z,19.95
2022-08-17T23:39:27.695Z,20.02
2022-08-17T23:41:58.457Z,20.02
2022-08-17T23:44:28.381Z,19.98
2022-08-17T23:46:57.027Z,20.05
2022-08-17T23:49:24.770Z,20.01
2022-08-17T23:51:54.297Z,20.01
2022-08-17T23:54:34.209Z,20.00
2022-08-17T23:57:04.281Z,20.01
2022-08-17T23:59:33.454Z,20.01
